This is the latest recevied weather packets stored in our database for station/object SQ5JP-4. If no packets are shown the sender has not sent any weather packets the latest 1 day(s).
| Time | Temp. | Humidity | Pressure | Rain* | Wind** | Luminosity | Snow |
|---|---|---|---|---|---|---|---|
| 1778082303 | 24.44° C | 51% | 987.3 hPa | - | - | - | - |
| 1778080502 | 24.44° C | 50% | 987.4 hPa | - | - | - | - |
| 1778076005 | 27.22° C | 48% | 987.3 hPa | - | - | - | - |
| 1778068804 | 27.22° C | 49% | 987 hPa | - | - | - | - |
| 1778067904 | 26.11° C | 49% | 987.1 hPa | - | - | - | - |
| 1778064303 | 26.67° C | 47% | 987 hPa | - | - | - | - |
| 1778056201 | 23.33° C | 48% | 987 hPa | - | - | - | - |
| 1778051702 | 21.11° C | 69% | 987.5 hPa | - | - | - | - |
| 1778049902 | 18.89° C | 74% | 987.6 hPa | - | - | - | - |
| 1778049002 | 17.78° C | 80% | 987.7 hPa | - | - | - | - |
| 1778044501 | 13.33° C | 100% | 987.7 hPa | - | - | - | - |
| 1778043602 | 12.22° C | 100% | 987.5 hPa | - | - | - | - |
| 1778042701 | 11.11° C | 100% | 987.2 hPa | - | - | - | - |
| 1778041801 | 10° C | 100% | 987.2 hPa | - | - | - | - |
| 1778040901 | 8.89° C | 100% | 986.9 hPa | - | - | - | - |
| 1778040001 | 7.78° C | 100% | 987.4 hPa | - | - | - | - |
| 1778039100 | 7.22° C | 100% | 987.2 hPa | - | - | - | - |
| 1778037300 | 7.22° C | 100% | 987.3 hPa | - | - | - | - |
| 1778035499 | 7.22° C | 100% | 987.6 hPa | - | - | - | - |
| 1778034599 | 7.22° C | 100% | 987.7 hPa | - | - | - | - |
| 1778027400 | 8.33° C | 100% | 988 hPa | - | - | - | - |
| 1778026500 | 8.89° C | 100% | 987.9 hPa | - | - | - | - |
| 1778020199 | 12.22° C | 100% | 988 hPa | - | - | - | - |
| 1778018399 | 13.89° C | 77% | 988.1 hPa | - | - | - | - |
| 1778016599 | 13.89° C | 80% | 988 hPa | - | - | - | - |
* Rain since midnight (hover to see other rain measurements)
** Current wind speed in m/s (hover to see current wind gust speed)